• Join FlightAware (Why Join?)
  • Login
  • US Flag 
12:02PM EDT


 

Airport Tracker/Info


-or-


 

Live Flight TrackerFlight Track Log ✈ UAL5835 ✈ 02-Nov-2013 ✈ KFSD - KORD

Flight Track Log - Related Links

Times and Time Zones

All times are in EDT time to prevent confusion due to time zone crossing. See the UAL5835 flight status page for this flight to view local times or setup timezone preferences in your user account.

Time Position Orientation Groundspeed Altitude Reporting Facility
EDT Latitude Longitude Course Direction KTS MPH feet Rate Location/Type
03:05PM 43.6317 -96.6900 58° Northeast 245 282 4,300  Level Minneapolis Center
03:06PM 43.6253 -96.6031 96° East 231 266 6,800 2,040 Climbing Minneapolis Center
03:07PM 43.6197 -96.5094 95° East 237 273 8,600 1,680 Climbing Minneapolis Center
03:08PM 43.6117 -96.4008 96° East 257 296 10,300 1,560 Climbing Minneapolis Center
03:09PM 43.4706 -95.9592 96° East  Level Estimated
03:09PM 43.6019 -96.2478 95° East 305 351 11,800  Level Minneapolis Center
03:10PM 43.5922 -96.1111 96° East 339 390 13,100 1,200 Climbing Minneapolis Center
03:11PM 43.5819 -95.9675 96° East 368 423 14,300 1,140 Climbing Minneapolis Center
03:12PM 43.5711 -95.8172 96° East 389 448 15,500 1,140 Climbing Minneapolis Center
03:13PM 43.5600 -95.6656 96° East 399 459 16,700 1,140 Climbing Minneapolis Center
03:14PM 43.5481 -95.5097 96° East 409 471 17,900 1,080 Climbing Minneapolis Center
03:15PM 43.5356 -95.3511 96° East 417 480 19,000 1,080 Climbing Minneapolis Center
03:16PM 43.5194 -95.1564 96° East 426 490 20,200 1,080 Climbing Minneapolis Center
03:17PM 43.5061 -94.9881 96° East 437 503 21,300 1,020 Climbing Minneapolis Center
03:18PM 43.4931 -94.8178 96° East 447 514 22,300 960 Climbing Minneapolis Center
03:19PM 43.4781 -94.6481 97° East 449 517 23,300 1,020 Climbing Minneapolis Center
03:20PM 43.4653 -94.4764 96° East 452 520 24,400 780 Climbing Minneapolis Center
03:21PM 43.4481 -94.3050 98° East 454 522 25,000 180 Climbing Minneapolis Center
03:23PM 43.4125 -93.9983 99° East 473 544 25,000  Level Chicago Center
03:24PM 43.3953 -93.8125 97° East 484 557 25,000  Level Chicago Center
03:25PM 43.3778 -93.6256 97° East 491 565 25,000  Level Chicago Center
03:26PM 43.3619 -93.4364 97° East 497 572 25,000  Level Chicago Center
03:27PM 43.3408 -93.2100 97° East 500 575 25,000  Level Chicago Center
03:28PM 43.3281 -93.0214 95° East 500 575 25,000  Level Chicago Center
03:29PM 43.3086 -92.8389 98° East 491 565 25,000  Level Chicago Center
03:30PM 43.2894 -92.6567 98° East 488 562 25,000  Level Chicago Center
03:31PM 43.2714 -92.4725 98° East 488 562 25,000  Level Chicago Center
03:32PM 43.2525 -92.2878 98° East 489 563 25,000  Level Chicago Center
03:33PM 43.2278 -92.0644 99° East 493 567 25,000  Level Chicago Center
03:34PM 43.2075 -91.8769 98° East 496 571 25,000  Level Chicago Center
03:35PM 43.1861 -91.6875 99° East 499 574 25,000  Level Chicago Center
03:36PM 43.1306 -91.5047 113° Southeast 511 588 25,000  Level Chicago Center
03:37PM 43.0683 -91.3233 115° Southeast 523 602 25,000  Level Chicago Center
03:38PM 43.0064 -91.1450 115° Southeast 520 598 25,000  Level Chicago Center
03:39PM 42.9447 -90.9672 115° Southeast 517 595 25,000  Level Chicago Center
03:40PM 42.8839 -90.7933 115° Southeast 512 589 25,000  Level Chicago Center
03:41PM 42.8106 -90.5867 116° Southeast 508 585 25,000  Level Chicago Center
03:42PM 42.7492 -90.4161 116° Southeast 505 581 25,000  Level Chicago Center
03:43PM 42.6886 -90.2450 116° Southeast 504 580 25,000 -300 Level Chicago Center
03:44PM 42.6269 -90.0794 117° Southeast 496 571 24,500 -540 Descending Chicago Center
03:45PM 42.5733 -89.9278 116° Southeast 449 517 24,000 -420 Descending Chicago Center
03:46PM 42.5222 -89.7808 115° Southeast 442 509 23,700 -1,140 Descending Chicago Center
03:48PM 42.5153 -89.5811 93° East 442 509 21,700 -1,800 Descending Chicago Center
03:49PM 42.5122 -89.4233 91° East 427 491 20,100 -1,620 Descending Chicago Center
03:50PM 42.5094 -89.2686 91° East 418 481 18,500 -1,560 Descending Chicago Center
03:51PM 42.5075 -89.1156 91° East 412 474 17,000 -1,800 Descending Chicago Center
03:52PM 42.5072 -88.9669 90° East 403 464 14,900 -2,100 Descending Chicago Center
03:53PM 42.4753 -88.8294 107° East 389 448 12,700 -1,860 Descending Chicago Center
03:54PM 42.4281 -88.6753 112° Southeast 376 433 11,100 -780 Descending Chicago Center
03:55PM 42.3894 -88.5503 113° Southeast 367 422 11,100 -60 Level Chicago Center
03:56PM 42.3517 -88.4194 111° Southeast 371 427 11,000 -60 Descending Chicago Center
03:57PM 42.2950 -88.3131 126° Southeast 369 425 11,000  Level Chicago Center
03:58PM 42.2311 -88.2075 129° Southeast 364 419 11,000 -180 Level Chicago Center
03:59PM 42.1650 -88.1103 133° Southeast 352 405 10,700 -1,140 Descending Chicago Center
04:00PM 42.1000 -88.0167 133° Southeast 294 338 8,800 -1,560 Descending Chicago TRACON
04:01PM 42.1000 -87.9167 90° East 295 339 7,600 -1,080 Descending Chicago TRACON
04:02PM 42.0833 -87.8000 101° East 274 315 6,700 -1,200 Descending Chicago TRACON
04:03PM 42.0833 -87.7167 90° East 256 295 5,200 -1,200 Descending Chicago TRACON
04:04PM 42.0833 -87.6167 90° East 262 302 4,300 -600 Descending Chicago TRACON
04:05PM 42.0833 -87.5167 90° East 262 302 4,100 -120 Descending Chicago TRACON
04:06PM 42.0667 -87.4167 103° East 280 322 4,100  Level Chicago TRACON
04:07PM 42.0000 -87.4500 200° South 273 314 4,100  Level Chicago TRACON
04:08PM 42.0000 -87.5333 270° West 246 283 4,100  Level Chicago TRACON
04:09PM 42.0000 -87.6333 270° West 245 282 4,100 -300 Level Chicago TRACON
04:10PM 42.0000 -87.7167 270° West 224 258 3,500 -900 Descending Chicago TRACON
04:11PM 42.0000 -87.8000 270° West 211 243 2,200 -1,020 Descending Chicago TRACON
04:12PM 42.0000 -87.8500 270° West 147 169 1,500 -780 Descending Chicago TRACON
04:14PM 41.9667 -87.9000 266° West  Level FlightAware Approximate